N172SP USHQ-USHI
Flight info
| Callsign | N172SP |
|---|---|
| Flight time | N/A |
| Altitude | 1000 |
| Route | LOCALITY POLNOVAT / USHB / ALONG RIVER OB |
| Aircraft | C172/L-S/L |
Departure
| Time | 2026-05-05 16:47 |
|---|---|
| Airport | Beloyarskiy Airport (USHQ) |
Arrival
| Time | N/A |
|---|---|
| Airport | Igrim Airport (USHI) |
| Time | Latitude | Longitude | Altitude | Speed | Heading |
|---|---|---|---|---|---|
| 2026-05-05 16:30 | 63.69534 | 66.69576 | 81 ft | 0 kts | 92° |
| 2026-05-05 16:43 | 63.69533 | 66.69605 | 81 ft | 7 kts | 93° |
| 2026-05-05 16:44 | 63.69475 | 66.69655 | 81 ft | 12 kts | 185° |
| 2026-05-05 16:44 | 63.69355 | 66.69643 | 80 ft | 23 kts | 184° |
| 2026-05-05 16:44 | 63.69175 | 66.69625 | 80 ft | 23 kts | 184° |
| 2026-05-05 16:44 | 63.69081 | 66.69711 | 80 ft | 12 kts | 107° |
| 2026-05-05 16:45 | 63.69079 | 66.69744 | 80 ft | 0 kts | 91° |
| 2026-05-05 16:45 | 63.69078 | 66.69805 | 80 ft | 8 kts | 92° |
| 2026-05-05 16:45 | 63.69086 | 66.69970 | 80 ft | 6 kts | 35° |
| 2026-05-05 16:45 | 63.69134 | 66.69984 | 80 ft | 4 kts | 358° |
| 2026-05-05 16:46 | 63.69135 | 66.69984 | 80 ft | 0 kts | 1° |
| 2026-05-05 16:46 | 63.69165 | 66.69988 | 80 ft | 26 kts | 2° |
| 2026-05-05 16:46 | 63.69552 | 66.70010 | 172 ft | 71 kts | 0° |
| 2026-05-05 16:46 | 63.70060 | 66.70001 | 396 ft | 74 kts | 359° |
| 2026-05-05 16:47 | 63.70605 | 66.69933 | 511 ft | 83 kts | 358° |
| 2026-05-05 16:47 | 63.71187 | 66.69766 | 652 ft | 85 kts | 344° |
| 2026-05-05 16:47 | 63.71640 | 66.68938 | 790 ft | 86 kts | 294° |
| 2026-05-05 16:47 | 63.71800 | 66.67661 | 925 ft | 85 kts | 271° |
| 2026-05-05 16:48 | 63.71891 | 66.66327 | 1037 ft | 88 kts | 269° |
| 2026-05-05 16:48 | 63.71990 | 66.64932 | 1121 ft | 95 kts | 270° |
| 2026-05-05 16:48 | 63.72106 | 66.63376 | 1108 ft | 104 kts | 272° |
| 2026-05-05 16:48 | 63.72228 | 66.61741 | 1102 ft | 107 kts | 272° |
| 2026-05-05 16:49 | 63.72349 | 66.60106 | 1099 ft | 107 kts | 272° |
| 2026-05-05 16:49 | 63.72446 | 66.58421 | 1097 ft | 107 kts | 269° |
| 2026-05-05 16:49 | 63.72538 | 66.56741 | 1097 ft | 108 kts | 269° |
| 2026-05-05 16:49 | 63.72629 | 66.55067 | 1096 ft | 107 kts | 270° |
| 2026-05-05 16:50 | 63.72720 | 66.53384 | 1095 ft | 107 kts | 269° |
| 2026-05-05 16:50 | 63.72814 | 66.51723 | 1094 ft | 107 kts | 269° |
| 2026-05-05 16:50 | 63.72908 | 66.49979 | 1096 ft | 116 kts | 269° |
| 2026-05-05 16:50 | 63.73003 | 66.48143 | 1096 ft | 120 kts | 269° |
| 2026-05-05 16:51 | 63.73139 | 66.46281 | 1088 ft | 124 kts | 282° |
| 2026-05-05 16:51 | 63.73447 | 66.44472 | 1092 ft | 124 kts | 286° |
| 2026-05-05 16:51 | 63.73775 | 66.42645 | 1092 ft | 124 kts | 287° |
| 2026-05-05 16:51 | 63.74086 | 66.40851 | 1094 ft | 123 kts | 281° |
| 2026-05-05 16:52 | 63.74274 | 66.38952 | 1092 ft | 123 kts | 278° |
| 2026-05-05 16:52 | 63.74483 | 66.37075 | 1089 ft | 124 kts | 280° |
| 2026-05-05 16:52 | 63.74746 | 66.35237 | 1087 ft | 124 kts | 283° |
| 2026-05-05 16:52 | 63.75019 | 66.33395 | 1082 ft | 124 kts | 282° |
| 2026-05-05 16:53 | 63.75285 | 66.31536 | 1083 ft | 124 kts | 278° |
| 2026-05-05 16:53 | 63.75501 | 66.29641 | 1078 ft | 123 kts | 276° |
| 2026-05-05 16:53 | 63.75673 | 66.27750 | 1076 ft | 123 kts | 274° |
| 2026-05-05 16:53 | 63.75797 | 66.25872 | 1115 ft | 115 kts | 258° |
| 2026-05-05 16:54 | 63.75863 | 66.24020 | 1064 ft | 118 kts | 263° |
| 2026-05-05 16:54 | 63.75919 | 66.22139 | 1080 ft | 120 kts | 271° |
| 2026-05-05 16:54 | 63.76070 | 66.20352 | 1202 ft | 114 kts | 273° |
| 2026-05-05 16:54 | 63.76236 | 66.18610 | 1326 ft | 112 kts | 273° |
| 2026-05-05 16:55 | 63.76416 | 66.16886 | 1454 ft | 109 kts | 274° |
| 2026-05-05 16:55 | 63.76610 | 66.15275 | 1386 ft | 109 kts | 275° |
| 2026-05-05 16:55 | 63.76800 | 66.13612 | 1262 ft | 111 kts | 275° |
| 2026-05-05 16:55 | 63.76985 | 66.11916 | 1126 ft | 106 kts | 276° |
| 2026-05-05 16:56 | 63.77138 | 66.10411 | 1047 ft | 89 kts | 274° |
| 2026-05-05 16:56 | 63.77266 | 66.09176 | 1041 ft | 74 kts | 273° |
| 2026-05-05 16:56 | 63.77391 | 66.07995 | 1070 ft | 84 kts | 269° |
| 2026-05-05 16:56 | 63.77523 | 66.06506 | 1076 ft | 109 kts | 272° |
| 2026-05-05 16:57 | 63.77681 | 66.04723 | 1064 ft | 118 kts | 276° |
| 2026-05-05 16:57 | 63.77858 | 66.03051 | 1112 ft | 100 kts | 276° |
| 2026-05-05 16:57 | 63.78026 | 66.01493 | 1102 ft | 106 kts | 272° |
| 2026-05-05 16:57 | 63.78176 | 65.99754 | 1098 ft | 117 kts | 272° |
| 2026-05-05 16:58 | 63.78327 | 65.98098 | 1085 ft | 104 kts | 272° |
| 2026-05-05 16:58 | 63.78477 | 65.96407 | 1096 ft | 113 kts | 272° |
| 2026-05-05 16:58 | 63.78628 | 65.94678 | 1088 ft | 111 kts | 272° |
| 2026-05-05 16:58 | 63.78785 | 65.92905 | 1086 ft | 112 kts | 273° |
| 2026-05-05 16:59 | 63.78943 | 65.91146 | 1088 ft | 115 kts | 272° |
| 2026-05-05 16:59 | 63.79081 | 65.89394 | 1087 ft | 112 kts | 271° |
| 2026-05-05 16:59 | 63.79216 | 65.87677 | 1089 ft | 111 kts | 272° |
| 2026-05-05 16:59 | 63.79371 | 65.85989 | 1089 ft | 111 kts | 272° |
| 2026-05-05 17:00 | 63.79522 | 65.84232 | 1088 ft | 113 kts | 273° |
| 2026-05-05 17:00 | 63.79671 | 65.82548 | 1089 ft | 113 kts | 271° |
| 2026-05-05 17:00 | 63.79827 | 65.80736 | 1089 ft | 120 kts | 272° |
| 2026-05-05 17:00 | 63.79984 | 65.78845 | 1087 ft | 122 kts | 272° |
| 2026-05-05 17:01 | 63.80144 | 65.76965 | 1084 ft | 123 kts | 274° |
| 2026-05-05 17:01 | 63.80324 | 65.75133 | 1080 ft | 114 kts | 274° |
| 2026-05-05 17:01 | 63.80494 | 65.73358 | 1086 ft | 116 kts | 274° |
| 2026-05-05 17:01 | 63.80656 | 65.71570 | 1087 ft | 117 kts | 276° |
| 2026-05-05 17:02 | 63.80888 | 65.69788 | 1087 ft | 118 kts | 281° |
| 2026-05-05 17:02 | 63.81155 | 65.68019 | 1092 ft | 118 kts | 282° |
| 2026-05-05 17:02 | 63.81425 | 65.66260 | 1091 ft | 119 kts | 282° |
| 2026-05-05 17:02 | 63.81718 | 65.64522 | 1093 ft | 119 kts | 283° |
| 2026-05-05 17:03 | 63.82019 | 65.62762 | 1093 ft | 119 kts | 284° |
| 2026-05-05 17:03 | 63.82378 | 65.61073 | 1092 ft | 121 kts | 292° |
| 2026-05-05 17:03 | 63.82741 | 65.59355 | 1085 ft | 120 kts | 289° |
| 2026-05-05 17:03 | 63.83084 | 65.57640 | 1082 ft | 119 kts | 283° |
| 2026-05-05 17:04 | 63.83404 | 65.55908 | 1075 ft | 119 kts | 283° |
| 2026-05-05 17:04 | 63.83685 | 65.54144 | 1022 ft | 119 kts | 281° |
| 2026-05-05 17:04 | 63.83963 | 65.52450 | 1101 ft | 117 kts | 282° |
| 2026-05-05 17:04 | 63.84168 | 65.50755 | 941 ft | 128 kts | 264° |
| 2026-05-05 17:05 | 63.84375 | 65.48992 | 1185 ft | 102 kts | 283° |
| 2026-05-05 17:05 | 63.84809 | 65.47433 | 1010 ft | 124 kts | 279° |
| 2026-05-05 17:05 | 63.85104 | 65.45725 | 857 ft | 125 kts | 253° |
| 2026-05-05 17:05 | 63.84858 | 65.43927 | 731 ft | 116 kts | 249° |
| 2026-05-05 17:06 | 63.84447 | 65.42594 | 814 ft | 105 kts | 239° |
| 2026-05-05 17:06 | 63.83884 | 65.42116 | 812 ft | 99 kts | 198° |
| 2026-05-05 17:06 | 63.83633 | 65.40644 | 807 ft | 113 kts | 272° |
| 2026-05-05 17:06 | 63.83993 | 65.38944 | 761 ft | 113 kts | 284° |
| 2026-05-05 17:07 | 63.83895 | 65.37364 | 897 ft | 101 kts | 250° |
| 2026-05-05 17:07 | 63.84089 | 65.35707 | 1039 ft | 108 kts | 278° |
| 2026-05-05 17:07 | 63.84527 | 65.34176 | 1017 ft | 126 kts | 314° |
| 2026-05-05 17:07 | 63.85166 | 65.32884 | 1117 ft | 123 kts | 311° |
| 2026-05-05 17:08 | 63.85767 | 65.31536 | 1200 ft | 123 kts | 308° |
| 2026-05-05 17:08 | 63.86360 | 65.30125 | 1269 ft | 124 kts | 306° |
| 2026-05-05 17:08 | 63.86934 | 65.28657 | 1345 ft | 123 kts | 303° |
| 2026-05-05 17:08 | 63.87494 | 65.27186 | 1382 ft | 126 kts | 303° |
| 2026-05-05 17:09 | 63.88050 | 65.25625 | 1431 ft | 126 kts | 298° |
| 2026-05-05 17:09 | 63.88534 | 65.24003 | 1491 ft | 124 kts | 292° |
| 2026-05-05 17:09 | 63.88952 | 65.22295 | 1526 ft | 124 kts | 288° |
| 2026-05-05 17:09 | 63.89267 | 65.20475 | 1492 ft | 124 kts | 276° |
| 2026-05-05 17:10 | 63.89507 | 65.18609 | 1481 ft | 123 kts | 274° |
| 2026-05-05 17:10 | 63.89706 | 65.16722 | 1481 ft | 121 kts | 270° |
| 2026-05-05 17:10 | 63.89907 | 65.14871 | 1468 ft | 123 kts | 274° |
| 2026-05-05 17:10 | 63.90119 | 65.12968 | 1468 ft | 123 kts | 274° |
| 2026-05-05 17:11 | 63.90528 | 65.11196 | 1360 ft | 139 kts | 306° |
| 2026-05-05 17:11 | 63.91247 | 65.09716 | 1022 ft | 127 kts | 303° |
| 2026-05-05 17:11 | 63.91848 | 65.08416 | 596 ft | 114 kts | 303° |
| 2026-05-05 17:11 | 63.92244 | 65.07088 | 359 ft | 96 kts | 281° |
| 2026-05-05 17:12 | 63.92451 | 65.05737 | 226 ft | 89 kts | 277° |
| 2026-05-05 17:12 | 63.92381 | 65.04436 | 119 ft | 77 kts | 244° |
| 2026-05-05 17:12 | 63.92214 | 65.03371 | 108 ft | 69 kts | 245° |
| 2026-05-05 17:12 | 63.92067 | 65.02519 | 108 ft | 42 kts | 251° |
| 2026-05-05 17:13 | 63.91995 | 65.02080 | 108 ft | 25 kts | 255° |
| 2026-05-05 17:13 | 63.91943 | 65.01743 | 108 ft | 22 kts | 224° |
| 2026-05-05 17:13 | 63.91842 | 65.01684 | 107 ft | 13 kts | 101° |
| 2026-05-05 17:13 | 63.91866 | 65.01675 | 108 ft | 20 kts | 86° |
| 2026-05-05 17:14 | 63.91928 | 65.02374 | 108 ft | 64 kts | 84° |
| 2026-05-05 17:14 | 63.91909 | 65.03068 | 108 ft | 12 kts | 75° |
| 2026-05-05 17:14 | 63.91912 | 65.03056 | 108 ft | 6 kts | 201° |
| 2026-05-05 17:14 | 63.91917 | 65.02863 | 107 ft | 16 kts | 292° |
| 2026-05-05 17:15 | 63.91927 | 65.02719 | 107 ft | 16 kts | 247° |
| 2026-05-05 17:15 | 63.91919 | 65.02698 | 107 ft | 0 kts | 248° |